sensor_id;sensor_type;location;lat;lon;timestamp;pressure;altitude;pressure_sealevel;temperature;humidity
13732;BME280;6937;56.096;12.664;2023-04-01T00:00:55;99460.22;;;3.27;100.00
13732;BME280;6937;56.096;12.664;2023-04-01T00:03:21;99469.91;;;3.26;100.00
13732;BME280;6937;56.096;12.664;2023-04-01T00:05:47;99462.41;;;3.20;100.00
13732;BME280;6937;56.096;12.664;2023-04-01T00:08:12;99474.38;;;3.12;100.00
13732;BME280;6937;56.096;12.664;2023-04-01T00:10:38;99470.88;;;3.11;100.00
13732;BME280;6937;56.096;12.664;2023-04-01T00:13:04;99463.72;;;3.13;100.00
13732;BME280;6937;56.096;12.664;2023-04-01T00:15:29;99464.47;;;3.15;100.00
13732;BME280;6937;56.096;12.664;2023-04-01T00:17:55;99471.66;;;3.13;100.00
13732;BME280;6937;56.096;12.664;2023-04-01T00:20:21;99448.81;;;3.12;100.00
13732;BME280;6937;56.096;12.664;2023-04-01T00:22:46;99466.56;;;3.10;100.00
13732;BME280;6937;56.096;12.664;2023-04-01T00:25:12;99462.22;;;3.09;100.00
13732;BME280;6937;56.096;12.664;2023-04-01T00:27:38;99471.28;;;3.05;100.00
13732;BME280;6937;56.096;12.664;2023-04-01T00:30:04;99473.72;;;3.08;100.00
13732;BME280;6937;56.096;12.664;2023-04-01T00:32:29;99467.59;;;3.08;100.00
13732;BME280;6937;56.096;12.664;2023-04-01T00:34:56;99474.84;;;3.04;100.00
13732;BME280;6937;56.096;12.664;2023-04-01T00:37:24;99479.38;;;3.02;100.00
13732;BME280;6937;56.096;12.664;2023-04-01T00:39:49;99486.66;;;2.99;100.00
13732;BME280;6937;56.096;12.664;2023-04-01T00:42:15;99473.44;;;2.99;100.00
13732;BME280;6937;56.096;12.664;2023-04-01T00:44:40;99466.38;;;2.99;100.00
13732;BME280;6937;56.096;12.664;2023-04-01T00:47:06;99475.25;;;2.98;100.00
13732;BME280;6937;56.096;12.664;2023-04-01T00:49:39;99468.25;;;2.97;100.00
13732;BME280;6937;56.096;12.664;2023-04-01T00:52:07;99474.31;;;2.99;100.00
13732;BME280;6937;56.096;12.664;2023-04-01T00:54:34;99477.88;;;2.98;100.00
13732;BME280;6937;56.096;12.664;2023-04-01T00:59:30;99459.50;;;2.97;100.00
13732;BME280;6937;56.096;12.664;2023-04-01T01:01:56;99471.75;;;2.98;100.00
13732;BME280;6937;56.096;12.664;2023-04-01T01:04:26;99471.00;;;2.96;100.00
13732;BME280;6937;56.096;12.664;2023-04-01T01:14:34;99482.88;;;2.88;100.00
13732;BME280;6937;56.096;12.664;2023-04-01T01:28:57;99503.31;;;2.85;100.00
13732;BME280;6937;56.096;12.664;2023-04-01T01:34:39;99513.50;;;2.91;100.00
13732;BME280;6937;56.096;12.664;2023-04-01T01:37:14;99509.06;;;2.91;100.00
13732;BME280;6937;56.096;12.664;2023-04-01T01:39:43;99518.88;;;2.89;100.00
13732;BME280;6937;56.096;12.664;2023-04-01T01:42:13;99519.06;;;2.86;100.00
13732;BME280;6937;56.096;12.664;2023-04-01T01:44:41;99516.69;;;2.82;100.00
13732;BME280;6937;56.096;12.664;2023-04-01T01:47:09;99521.22;;;2.80;100.00
13732;BME280;6937;56.096;12.664;2023-04-01T01:49:36;99530.00;;;2.80;100.00
13732;BME280;6937;56.096;12.664;2023-04-01T01:52:03;99522.06;;;2.80;100.00
13732;BME280;6937;56.096;12.664;2023-04-01T01:54:29;99535.16;;;2.82;100.00
13732;BME280;6937;56.096;12.664;2023-04-01T01:57:04;99521.88;;;2.83;100.00
13732;BME280;6937;56.096;12.664;2023-04-01T01:59:33;99526.38;;;2.81;100.00
13732;BME280;6937;56.096;12.664;2023-04-01T02:02:03;99522.94;;;2.81;100.00
13732;BME280;6937;56.096;12.664;2023-04-01T02:04:35;99523.75;;;2.81;100.00
13732;BME280;6937;56.096;12.664;2023-04-01T02:07:04;99532.25;;;2.86;100.00
13732;BME280;6937;56.096;12.664;2023-04-01T02:09:32;99530.66;;;2.84;100.00
13732;BME280;6937;56.096;12.664;2023-04-01T02:12:02;99530.84;;;2.81;100.00
13732;BME280;6937;56.096;12.664;2023-04-01T02:14:52;99536.13;;;2.81;100.00
13732;BME280;6937;56.096;12.664;2023-04-01T02:17:21;99531.78;;;2.80;100.00
13732;BME280;6937;56.096;12.664;2023-04-01T02:19:59;99538.66;;;2.82;100.00
13732;BME280;6937;56.096;12.664;2023-04-01T02:22:30;99540.44;;;2.82;100.00
13732;BME280;6937;56.096;12.664;2023-04-01T02:25:03;99536.47;;;2.75;100.00
13732;BME280;6937;56.096;12.664;2023-04-01T02:27:31;99537.50;;;2.72;100.00
13732;BME280;6937;56.096;12.664;2023-04-01T02:29:57;99544.38;;;2.75;100.00
13732;BME280;6937;56.096;12.664;2023-04-01T02:32:23;99547.22;;;2.72;100.00
13732;BME280;6937;56.096;12.664;2023-04-01T02:34:50;99551.56;;;2.73;100.00
13732;BME280;6937;56.096;12.664;2023-04-01T02:37:16;99551.81;;;2.68;100.00
13732;BME280;6937;56.096;12.664;2023-04-01T02:39:42;99556.25;;;2.68;100.00
13732;BME280;6937;56.096;12.664;2023-04-01T02:42:08;99554.66;;;2.65;100.00
13732;BME280;6937;56.096;12.664;2023-04-01T02:44:33;99558.47;;;2.60;100.00
13732;BME280;6937;56.096;12.664;2023-04-01T02:46:59;99570.72;;;2.61;100.00
13732;BME280;6937;56.096;12.664;2023-04-01T02:49:24;99570.66;;;2.62;100.00
13732;BME280;6937;56.096;12.664;2023-04-01T02:51:49;99572.63;;;2.59;100.00
13732;BME280;6937;56.096;12.664;2023-04-01T02:54:17;99570.72;;;2.61;100.00
13732;BME280;6937;56.096;12.664;2023-04-01T02:56:42;99573.38;;;2.61;100.00
13732;BME280;6937;56.096;12.664;2023-04-01T02:59:08;99574.41;;;2.58;100.00
13732;BME280;6937;56.096;12.664;2023-04-01T03:01:33;99585.88;;;2.57;100.00
13732;BME280;6937;56.096;12.664;2023-04-01T03:03:58;99582.41;;;2.57;100.00
13732;BME280;6937;56.096;12.664;2023-04-01T03:06:24;99583.44;;;2.54;100.00
13732;BME280;6937;56.096;12.664;2023-04-01T03:08:49;99589.72;;;2.52;100.00
13732;BME280;6937;56.096;12.664;2023-04-01T03:11:15;99582.66;;;2.52;100.00
13732;BME280;6937;56.096;12.664;2023-04-01T03:13:40;99581.06;;;2.50;100.00
13732;BME280;6937;56.096;12.664;2023-04-01T03:16:06;99589.81;;;2.50;100.00
13732;BME280;6937;56.096;12.664;2023-04-01T03:18:32;99593.56;;;2.46;100.00
13732;BME280;6937;56.096;12.664;2023-04-01T03:20:57;99593.66;;;2.44;100.00
13732;BME280;6937;56.096;12.664;2023-04-01T03:23:23;99596.09;;;2.48;100.00
13732;BME280;6937;56.096;12.664;2023-04-01T03:25:49;99600.63;;;2.46;100.00
13732;BME280;6937;56.096;12.664;2023-04-01T03:28:15;99608.72;;;2.42;100.00
13732;BME280;6937;56.096;12.664;2023-04-01T03:30:40;99614.75;;;2.44;100.00
13732;BME280;6937;56.096;12.664;2023-04-01T03:33:06;99621.91;;;2.42;100.00
13732;BME280;6937;56.096;12.664;2023-04-01T03:35:31;99631.66;;;2.40;100.00
13732;BME280;6937;56.096;12.664;2023-04-01T03:37:57;99630.16;;;2.36;100.00
13732;BME280;6937;56.096;12.664;2023-04-01T03:40:22;99613.41;;;2.37;100.00
13732;BME280;6937;56.096;12.664;2023-04-01T03:42:48;99632.03;;;2.34;100.00
13732;BME280;6937;56.096;12.664;2023-04-01T03:45:14;99638.41;;;2.30;100.00
13732;BME280;6937;56.096;12.664;2023-04-01T03:47:39;99647.78;;;2.36;100.00
13732;BME280;6937;56.096;12.664;2023-04-01T03:50:08;99645.22;;;2.34;100.00
13732;BME280;6937;56.096;12.664;2023-04-01T03:52:33;99657.72;;;2.31;100.00
13732;BME280;6937;56.096;12.664;2023-04-01T03:54:59;99649.88;;;2.29;100.00
13732;BME280;6937;56.096;12.664;2023-04-01T03:57:25;99666.81;;;2.25;100.00
13732;BME280;6937;56.096;12.664;2023-04-01T03:59:51;99671.16;;;2.26;100.00
13732;BME280;6937;56.096;12.664;2023-04-01T04:02:16;99675.56;;;2.26;100.00
13732;BME280;6937;56.096;12.664;2023-04-01T04:04:42;99680.75;;;2.27;100.00
13732;BME280;6937;56.096;12.664;2023-04-01T04:07:07;99686.22;;;2.24;100.00
13732;BME280;6937;56.096;12.664;2023-04-01T04:09:33;99688.75;;;2.26;100.00
13732;BME280;6937;56.096;12.664;2023-04-01T04:11:59;99690.47;;;2.27;100.00
13732;BME280;6937;56.096;12.664;2023-04-01T04:14:24;99697.69;;;2.23;100.00
13732;BME280;6937;56.096;12.664;2023-04-01T04:16:50;99696.66;;;2.26;100.00
13732;BME280;6937;56.096;12.664;2023-04-01T04:19:15;99706.28;;;2.27;100.00
13732;BME280;6937;56.096;12.664;2023-04-01T04:21:41;99704.75;;;2.23;100.00
13732;BME280;6937;56.096;12.664;2023-04-01T04:24:07;99714.44;;;2.22;100.00
13732;BME280;6937;56.096;12.664;2023-04-01T04:26:32;99706.69;;;2.19;100.00
13732;BME280;6937;56.096;12.664;2023-04-01T04:28:58;99716.47;;;2.17;100.00
13732;BME280;6937;56.096;12.664;2023-04-01T04:31:24;99722.06;;;2.11;100.00
13732;BME280;6937;56.096;12.664;2023-04-01T04:33:50;99743.16;;;2.11;100.00
13732;BME280;6937;56.096;12.664;2023-04-01T04:36:17;99744.88;;;2.12;100.00
13732;BME280;6937;56.096;12.664;2023-04-01T04:38:42;99751.66;;;2.16;100.00
13732;BME280;6937;56.096;12.664;2023-04-01T04:41:09;99763.13;;;2.15;100.00
13732;BME280;6937;56.096;12.664;2023-04-01T04:43:35;99762.22;;;2.16;100.00
13732;BME280;6937;56.096;12.664;2023-04-01T04:46:05;99760.50;;;2.15;100.00
13732;BME280;6937;56.096;12.664;2023-04-01T04:48:30;99773.06;;;2.10;100.00
13732;BME280;6937;56.096;12.664;2023-04-01T04:50:56;99780.84;;;2.13;100.00
13732;BME280;6937;56.096;12.664;2023-04-01T04:53:21;99774.09;;;2.08;100.00
13732;BME280;6937;56.096;12.664;2023-04-01T04:55:48;99777.06;;;2.02;100.00
13732;BME280;6937;56.096;12.664;2023-04-01T04:58:14;99790.47;;;1.97;100.00
13732;BME280;6937;56.096;12.664;2023-04-01T05:00:40;99801.94;;;1.96;100.00
13732;BME280;6937;56.096;12.664;2023-04-01T05:03:05;99800.31;;;1.93;100.00
13732;BME280;6937;56.096;12.664;2023-04-01T05:05:31;99805.75;;;1.90;100.00
13732;BME280;6937;56.096;12.664;2023-04-01T05:07:56;99816.38;;;1.89;100.00
13732;BME280;6937;56.096;12.664;2023-04-01T05:10:22;99816.53;;;1.86;100.00
13732;BME280;6937;56.096;12.664;2023-04-01T05:12:47;99829.69;;;1.86;100.00
13732;BME280;6937;56.096;12.664;2023-04-01T05:15:12;99835.13;;;1.83;100.00
13732;BME280;6937;56.096;12.664;2023-04-01T05:17:39;99844.88;;;1.81;100.00
13732;BME280;6937;56.096;12.664;2023-04-01T05:20:05;99853.75;;;1.80;100.00
13732;BME280;6937;56.096;12.664;2023-04-01T05:22:30;99870.38;;;1.80;100.00
13732;BME280;6937;56.096;12.664;2023-04-01T05:24:55;99875.03;;;1.75;100.00
13732;BME280;6937;56.096;12.664;2023-04-01T05:27:21;99872.31;;;1.77;100.00
13732;BME280;6937;56.096;12.664;2023-04-01T05:29:46;99887.41;;;1.73;100.00
13732;BME280;6937;56.096;12.664;2023-04-01T05:32:12;99897.41;;;1.67;100.00
13732;BME280;6937;56.096;12.664;2023-04-01T05:34:37;99898.31;;;1.66;100.00
13732;BME280;6937;56.096;12.664;2023-04-01T05:37:03;99906.84;;;1.71;100.00
13732;BME280;6937;56.096;12.664;2023-04-01T05:39:28;99917.72;;;1.65;100.00
13732;BME280;6937;56.096;12.664;2023-04-01T05:41:53;99936.16;;;1.65;100.00
13732;BME280;6937;56.096;12.664;2023-04-01T05:44:19;99946.44;;;1.69;100.00
13732;BME280;6937;56.096;12.664;2023-04-01T05:46:45;99947.06;;;1.74;100.00
13732;BME280;6937;56.096;12.664;2023-04-01T05:49:10;99963.63;;;1.76;100.00
13732;BME280;6937;56.096;12.664;2023-04-01T05:51:36;99978.97;;;1.68;100.00
13732;BME280;6937;56.096;12.664;2023-04-01T05:54:01;99979.09;;;1.65;100.00
13732;BME280;6937;56.096;12.664;2023-04-01T05:56:26;99991.34;;;1.66;100.00
13732;BME280;6937;56.096;12.664;2023-04-01T05:58:53;99996.63;;;1.66;100.00
13732;BME280;6937;56.096;12.664;2023-04-01T06:01:19;100005.22;;;1.70;100.00
13732;BME280;6937;56.096;12.664;2023-04-01T06:03:45;100014.78;;;1.72;100.00
13732;BME280;6937;56.096;12.664;2023-04-01T06:06:14;100012.16;;;1.72;100.00
13732;BME280;6937;56.096;12.664;2023-04-01T06:08:41;100032.97;;;1.77;100.00
13732;BME280;6937;56.096;12.664;2023-04-01T06:24:46;100086.16;;;1.85;100.00
13732;BME280;6937;56.096;12.664;2023-04-01T06:43:21;100154.44;;;1.89;100.00
13732;BME280;6937;56.096;12.664;2023-04-01T06:46:09;100158.94;;;1.87;100.00
13732;BME280;6937;56.096;12.664;2023-04-01T06:48:50;100167.91;;;1.83;100.00
13732;BME280;6937;56.096;12.664;2023-04-01T06:54:05;100192.03;;;1.74;100.00
13732;BME280;6937;56.096;12.664;2023-04-01T06:56:32;100197.16;;;1.77;100.00
13732;BME280;6937;56.096;12.664;2023-04-01T06:59:02;100200.50;;;1.81;100.00
13732;BME280;6937;56.096;12.664;2023-04-01T07:01:37;100194.31;;;1.82;100.00
13732;BME280;6937;56.096;12.664;2023-04-01T07:06:47;100216.09;;;1.85;100.00
13732;BME280;6937;56.096;12.664;2023-04-01T07:09:18;100230.97;;;1.86;100.00
13732;BME280;6937;56.096;12.664;2023-04-01T07:11:45;100243.25;;;1.87;100.00
13732;BME280;6937;56.096;12.664;2023-04-01T07:14:20;100238.75;;;1.89;100.00
13732;BME280;6937;56.096;12.664;2023-04-01T07:17:09;100244.78;;;1.91;100.00
13732;BME280;6937;56.096;12.664;2023-04-01T07:22:33;100253.72;;;2.08;100.00
13732;BME280;6937;56.096;12.664;2023-04-01T07:25:21;100259.63;;;2.13;100.00
13732;BME280;6937;56.096;12.664;2023-04-01T07:27:48;100270.09;;;2.14;100.00
13732;BME280;6937;56.096;12.664;2023-04-01T07:30:17;100269.19;;;2.15;100.00
13732;BME280;6937;56.096;12.664;2023-04-01T07:32:54;100311.00;;;2.23;100.00
13732;BME280;6937;56.096;12.664;2023-04-01T07:36:37;100309.78;;;2.30;100.00
13732;BME280;6937;56.096;12.664;2023-04-01T07:38:48;100305.53;;;2.46;100.00
13732;BME280;6937;56.096;12.664;2023-04-01T07:41:49;100320.81;;;2.58;100.00
13732;BME280;6937;56.096;12.664;2023-04-01T07:47:14;100330.28;;;2.62;100.00
13732;BME280;6937;56.096;12.664;2023-04-01T07:55:46;100332.97;;;2.79;100.00
13732;BME280;6937;56.096;12.664;2023-04-01T07:58:28;100362.84;;;2.80;100.00
13732;BME280;6937;56.096;12.664;2023-04-01T08:01:11;100370.31;;;2.89;100.00
13732;BME280;6937;56.096;12.664;2023-04-01T08:04:05;100379.03;;;2.91;100.00
13732;BME280;6937;56.096;12.664;2023-04-01T08:06:44;100391.06;;;2.97;100.00
13732;BME280;6937;56.096;12.664;2023-04-01T08:15:15;100411.97;;;3.01;100.00
13732;BME280;6937;56.096;12.664;2023-04-01T08:20:23;100419.63;;;3.26;100.00
13732;BME280;6937;56.096;12.664;2023-04-01T08:22:58;100421.25;;;3.28;100.00
13732;BME280;6937;56.096;12.664;2023-04-01T08:25:28;100425.59;;;3.29;100.00
13732;BME280;6937;56.096;12.664;2023-04-01T08:28:14;100436.50;;;3.40;100.00
13732;BME280;6937;56.096;12.664;2023-04-01T08:30:52;100444.50;;;3.39;100.00
13732;BME280;6937;56.096;12.664;2023-04-01T08:33:25;100446.00;;;3.45;100.00
13732;BME280;6937;56.096;12.664;2023-04-01T08:35:59;100448.38;;;3.49;100.00
13732;BME280;6937;56.096;12.664;2023-04-01T08:39:09;100462.19;;;3.56;100.00
13732;BME280;6937;56.096;12.664;2023-04-01T08:47:24;100467.53;;;4.07;100.00
13732;BME280;6937;56.096;12.664;2023-04-01T08:52:37;100491.25;;;4.26;100.00
13732;BME280;6937;56.096;12.664;2023-04-01T08:56:03;100498.16;;;4.28;100.00
13732;BME280;6937;56.096;12.664;2023-04-01T08:58:26;100517.09;;;4.38;100.00
13732;BME280;6937;56.096;12.664;2023-04-01T09:01:13;100519.94;;;4.51;100.00
13732;BME280;6937;56.096;12.664;2023-04-01T09:03:56;100528.28;;;4.60;100.00
13732;BME280;6937;56.096;12.664;2023-04-01T09:06:32;100527.91;;;4.68;100.00
13732;BME280;6937;56.096;12.664;2023-04-01T09:23:10;100504.53;;;5.09;100.00
13732;BME280;6937;56.096;12.664;2023-04-01T09:28:42;100466.78;;;5.21;100.00
13732;BME280;6937;56.096;12.664;2023-04-01T09:31:13;100445.66;;;5.35;100.00
13732;BME280;6937;56.096;12.664;2023-04-01T09:36:45;100401.63;;;5.48;100.00
13732;BME280;6937;56.096;12.664;2023-04-01T09:42:33;100425.00;;;5.71;100.00
13732;BME280;6937;56.096;12.664;2023-04-01T09:50:34;100484.97;;;5.90;100.00
13732;BME280;6937;56.096;12.664;2023-04-01T10:12:49;100551.63;;;6.45;100.00
13732;BME280;6937;56.096;12.664;2023-04-01T10:18:18;100555.94;;;6.61;100.00
13732;BME280;6937;56.096;12.664;2023-04-01T10:21:09;100565.34;;;6.67;100.00
13732;BME280;6937;56.096;12.664;2023-04-01T10:34:47;100579.84;;;6.75;100.00
13732;BME280;6937;56.096;12.664;2023-04-01T10:40:26;100597.94;;;6.99;100.00
13732;BME280;6937;56.096;12.664;2023-04-01T10:45:38;100624.38;;;7.16;100.00
13732;BME280;6937;56.096;12.664;2023-04-01T10:48:30;100623.31;;;7.18;100.00
13732;BME280;6937;56.096;12.664;2023-04-01T10:51:07;100638.06;;;7.38;100.00
13732;BME280;6937;56.096;12.664;2023-04-01T11:10:41;100670.50;;;8.28;100.00
13732;BME280;6937;56.096;12.664;2023-04-01T11:25:29;100698.50;;;8.48;100.00
13732;BME280;6937;56.096;12.664;2023-04-01T11:33:33;100720.34;;;8.94;100.00
13732;BME280;6937;56.096;12.664;2023-04-01T11:36:05;100720.19;;;9.09;100.00
13732;BME280;6937;56.096;12.664;2023-04-01T11:41:19;100736.56;;;9.43;100.00
13732;BME280;6937;56.096;12.664;2023-04-01T11:44:16;100754.72;;;9.50;100.00
13732;BME280;6937;56.096;12.664;2023-04-01T11:49:40;100761.00;;;9.37;100.00
13732;BME280;6937;56.096;12.664;2023-04-01T11:52:22;100769.81;;;9.25;100.00
13732;BME280;6937;56.096;12.664;2023-04-01T11:57:46;100774.16;;;9.65;100.00
13732;BME280;6937;56.096;12.664;2023-04-01T12:00:30;100770.00;;;9.74;100.00
13732;BME280;6937;56.096;12.664;2023-04-01T12:03:26;100786.25;;;9.70;100.00
13732;BME280;6937;56.096;12.664;2023-04-01T12:12:12;100792.31;;;9.98;100.00
13732;BME280;6937;56.096;12.664;2023-04-01T12:14:45;100803.16;;;10.22;100.00
13732;BME280;6937;56.096;12.664;2023-04-01T12:17:36;100813.41;;;10.28;100.00
13732;BME280;6937;56.096;12.664;2023-04-01T12:23:23;100821.69;;;10.61;100.00
13732;BME280;6937;56.096;12.664;2023-04-01T12:26:20;100824.25;;;10.75;100.00
13732;BME280;6937;56.096;12.664;2023-04-01T12:29:04;100821.88;;;10.83;100.00
13732;BME280;6937;56.096;12.664;2023-04-01T12:34:45;100835.25;;;10.83;100.00
13732;BME280;6937;56.096;12.664;2023-04-01T12:40:02;100825.66;;;11.04;100.00
13732;BME280;6937;56.096;12.664;2023-04-01T12:45:41;100840.75;;;11.05;100.00
13732;BME280;6937;56.096;12.664;2023-04-01T12:48:37;100842.31;;;11.21;100.00
13732;BME280;6937;56.096;12.664;2023-04-01T12:59:37;100854.19;;;11.64;100.00
13732;BME280;6937;56.096;12.664;2023-04-01T13:14:06;100863.38;;;11.73;100.00
13732;BME280;6937;56.096;12.664;2023-04-01T13:16:20;100859.88;;;11.83;100.00
13732;BME280;6937;56.096;12.664;2023-04-01T13:19:09;100858.66;;;11.76;100.00
13732;BME280;6937;56.096;12.664;2023-04-01T13:27:01;100875.13;;;11.70;100.00
13732;BME280;6937;56.096;12.664;2023-04-01T13:29:38;100876.59;;;11.98;100.00
13732;BME280;6937;56.096;12.664;2023-04-01T13:35:05;100876.34;;;12.36;100.00
13732;BME280;6937;56.096;12.664;2023-04-01T13:43:00;100883.28;;;12.60;100.00
13732;BME280;6937;56.096;12.664;2023-04-01T13:54:49;100895.88;;;13.16;100.00
13732;BME280;6937;56.096;12.664;2023-04-01T14:03:30;100909.28;;;12.93;100.00
13732;BME280;6937;56.096;12.664;2023-04-01T14:06:09;100903.69;;;12.85;100.00
13732;BME280;6937;56.096;12.664;2023-04-01T14:09:08;100913.06;;;12.91;100.00
13732;BME280;6937;56.096;12.664;2023-04-01T14:11:39;100912.34;;;12.78;100.00
13732;BME280;6937;56.096;12.664;2023-04-01T14:14:27;100920.03;;;13.04;100.00
13732;BME280;6937;56.096;12.664;2023-04-01T14:17:25;100923.78;;;13.02;100.00
13732;BME280;6937;56.096;12.664;2023-04-01T14:22:54;100933.66;;;13.35;100.00
13732;BME280;6937;56.096;12.664;2023-04-01T14:31:04;100937.47;;;13.10;100.00
13732;BME280;6937;56.096;12.664;2023-04-01T14:38:59;100949.25;;;13.52;100.00
13732;BME280;6937;56.096;12.664;2023-04-01T14:41:41;100967.47;;;13.48;100.00
13732;BME280;6937;56.096;12.664;2023-04-01T14:50:20;100958.38;;;14.56;100.00
13732;BME280;6937;56.096;12.664;2023-04-01T14:53:11;100960.56;;;15.23;100.00
13732;BME280;6937;56.096;12.664;2023-04-01T15:03:44;100993.34;;;15.28;94.52
13732;BME280;6937;56.096;12.664;2023-04-01T15:06:55;101016.88;;;15.26;89.15
13732;BME280;6937;56.096;12.664;2023-04-01T15:09:40;101052.28;;;15.21;77.80
13732;BME280;6937;56.096;12.664;2023-04-01T15:18:07;101133.56;;;15.15;64.31
13732;BME280;6937;56.096;12.664;2023-04-01T15:21:06;101139.94;;;14.93;60.76
13732;BME280;6937;56.096;12.664;2023-04-01T15:23:53;101154.56;;;15.00;60.53
13732;BME280;6937;56.096;12.664;2023-04-01T15:26:46;101144.09;;;15.18;59.11
13732;BME280;6937;56.096;12.664;2023-04-01T15:32:19;101152.91;;;14.88;57.36
13732;BME280;6937;56.096;12.664;2023-04-01T15:35:39;101145.56;;;14.90;58.05
13732;BME280;6937;56.096;12.664;2023-04-01T16:00:30;101148.88;;;14.51;55.95
13732;BME280;6937;56.096;12.664;2023-04-01T16:03:19;101135.22;;;14.54;57.24
13732;BME280;6937;56.096;12.664;2023-04-01T16:17:30;101130.13;;;14.18;58.75
13732;BME280;6937;56.096;12.664;2023-04-01T16:20:20;101134.53;;;14.08;58.86
13732;BME280;6937;56.096;12.664;2023-04-01T16:23:00;101130.66;;;13.78;57.96
13732;BME280;6937;56.096;12.664;2023-04-01T16:25:39;101124.16;;;13.47;59.31
13732;BME280;6937;56.096;12.664;2023-04-01T16:28:19;101117.94;;;13.36;60.19
13732;BME280;6937;56.096;12.664;2023-04-01T16:33:52;101126.34;;;13.53;62.66
13732;BME280;6937;56.096;12.664;2023-04-01T16:36:44;101129.88;;;13.32;61.15
13732;BME280;6937;56.096;12.664;2023-04-01T16:39:35;101130.47;;;13.24;61.75
13732;BME280;6937;56.096;12.664;2023-04-01T16:47:45;101129.72;;;12.87;64.20
13732;BME280;6937;56.096;12.664;2023-04-01T16:50:25;101137.16;;;12.60;63.81
13732;BME280;6937;56.096;12.664;2023-04-01T16:55:49;101137.75;;;12.29;66.39
13732;BME280;6937;56.096;12.664;2023-04-01T16:58:27;101147.84;;;12.25;66.73
13732;BME280;6937;56.096;12.664;2023-04-01T17:01:04;101143.06;;;11.92;66.43
13732;BME280;6937;56.096;12.664;2023-04-01T17:03:36;101152.22;;;11.77;68.19
13732;BME280;6937;56.096;12.664;2023-04-01T17:12:13;101172.06;;;10.97;70.14
13732;BME280;6937;56.096;12.664;2023-04-01T17:14:56;101172.00;;;10.72;72.13
13732;BME280;6937;56.096;12.664;2023-04-01T17:20:43;101190.22;;;10.39;76.53
13732;BME280;6937;56.096;12.664;2023-04-01T17:28:57;101192.53;;;9.60;80.16
13732;BME280;6937;56.096;12.664;2023-04-01T17:39:41;101206.66;;;8.58;86.78
13732;BME280;6937;56.096;12.664;2023-04-01T17:42:18;101204.50;;;8.34;88.91
13732;BME280;6937;56.096;12.664;2023-04-01T17:45:04;101205.50;;;8.15;90.55
13732;BME280;6937;56.096;12.664;2023-04-01T17:50:24;101218.03;;;7.81;93.97
13732;BME280;6937;56.096;12.664;2023-04-01T17:53:13;101213.81;;;7.61;95.37
13732;BME280;6937;56.096;12.664;2023-04-01T17:56:00;101218.91;;;7.48;97.02
13732;BME280;6937;56.096;12.664;2023-04-01T17:58:45;101221.25;;;7.37;98.48
13732;BME280;6937;56.096;12.664;2023-04-01T18:01:34;101221.88;;;7.25;99.61
13732;BME280;6937;56.096;12.664;2023-04-01T18:04:15;101220.72;;;7.13;100.00
13732;BME280;6937;56.096;12.664;2023-04-01T18:09:48;101230.00;;;6.88;100.00
13732;BME280;6937;56.096;12.664;2023-04-01T18:17:44;101231.59;;;6.56;100.00
13732;BME280;6937;56.096;12.664;2023-04-01T18:23:41;101241.84;;;6.45;100.00
13732;BME280;6937;56.096;12.664;2023-04-01T18:26:22;101242.13;;;6.39;100.00
13732;BME280;6937;56.096;12.664;2023-04-01T18:28:56;101248.16;;;6.23;100.00
13732;BME280;6937;56.096;12.664;2023-04-01T18:31:26;101240.66;;;6.14;100.00
13732;BME280;6937;56.096;12.664;2023-04-01T18:34:32;101249.81;;;6.07;100.00
13732;BME280;6937;56.096;12.664;2023-04-01T18:37:38;101266.09;;;6.00;100.00
13732;BME280;6937;56.096;12.664;2023-04-01T18:40:10;101269.19;;;5.89;100.00
13732;BME280;6937;56.096;12.664;2023-04-01T18:42:46;101269.34;;;5.86;100.00
13732;BME280;6937;56.096;12.664;2023-04-01T18:45:44;101275.78;;;5.80;100.00
13732;BME280;6937;56.096;12.664;2023-04-01T18:51:12;101271.66;;;5.53;100.00
13732;BME280;6937;56.096;12.664;2023-04-01T18:53:42;101282.41;;;5.50;100.00
13732;BME280;6937;56.096;12.664;2023-04-01T18:56:15;101284.44;;;5.44;100.00
13732;BME280;6937;56.096;12.664;2023-04-01T18:58:53;101289.88;;;5.41;100.00
13732;BME280;6937;56.096;12.664;2023-04-01T19:04:39;101302.84;;;5.26;100.00
13732;BME280;6937;56.096;12.664;2023-04-01T19:07:42;101306.69;;;5.19;100.00
13732;BME280;6937;56.096;12.664;2023-04-01T19:21:04;101328.13;;;4.92;100.00
13732;BME280;6937;56.096;12.664;2023-04-01T19:24:05;101338.94;;;4.87;100.00
13732;BME280;6937;56.096;12.664;2023-04-01T19:38:20;101354.97;;;4.61;100.00
13732;BME280;6937;56.096;12.664;2023-04-01T19:41:19;101361.41;;;4.54;100.00
13732;BME280;6937;56.096;12.664;2023-04-01T19:44:12;101362.34;;;4.53;100.00
13732;BME280;6937;56.096;12.664;2023-04-01T19:49:57;101382.09;;;4.43;100.00
13732;BME280;6937;56.096;12.664;2023-04-01T19:52:40;101375.31;;;4.35;100.00
13732;BME280;6937;56.096;12.664;2023-04-01T19:55:37;101383.38;;;4.32;100.00
13732;BME280;6937;56.096;12.664;2023-04-01T20:00:59;101392.50;;;4.24;100.00
13732;BME280;6937;56.096;12.664;2023-04-01T20:03:48;101399.69;;;4.20;100.00
13732;BME280;6937;56.096;12.664;2023-04-01T20:09:35;101409.09;;;4.04;100.00
13732;BME280;6937;56.096;12.664;2023-04-01T20:12:15;101408.50;;;3.96;100.00
13732;BME280;6937;56.096;12.664;2023-04-01T20:14:47;101413.09;;;3.91;100.00
13732;BME280;6937;56.096;12.664;2023-04-01T20:17:18;101415.69;;;3.93;100.00
13732;BME280;6937;56.096;12.664;2023-04-01T20:19:53;101421.00;;;3.91;100.00
13732;BME280;6937;56.096;12.664;2023-04-01T20:27:49;101428.34;;;3.83;100.00
13732;BME280;6937;56.096;12.664;2023-04-01T20:33:16;101441.63;;;3.81;100.00
13732;BME280;6937;56.096;12.664;2023-04-01T20:36:06;101446.19;;;3.76;100.00
13732;BME280;6937;56.096;12.664;2023-04-01T20:49:53;101452.31;;;3.52;100.00
13732;BME280;6937;56.096;12.664;2023-04-01T20:52:29;101455.00;;;3.51;100.00